KDMN/DMN METAR and TAF weather

Enter ICAO airport designator
Station Type Date Time Source
KDMN METAR 2021/07/28 04:53 UTC NOAA

KDMN 280453Z AUTO 10003KT 10SM CLR 25/12 A3019 RMK AO2 SLP140 T02500122


Station Type Date Time Source
KDMN Decoded METAR 2021/07/28 04:53 UTC NOAA

DEMING MUNICIPAL AIRPORT, NM, United States (KDMN) 32-16N 107-43W 1311M
Jul 28, 2021 - 12:53 AM EDT / 2021.07.28 0453 UTC
Wind: from the E (100 degrees) at 3 MPH (3 KT):0
Visibility: 10 mile(s):0
Sky conditions: clear
Temperature: 77.0 F (25.0 C)
Dew Point: 54.0 F (12.2 C)
Relative Humidity: 44%
Pressure (altimeter): 30.19 in. Hg (1022 hPa)
ob: KDMN 280453Z AUTO 10003KT 10SM CLR 25/12 A3019 RMK AO2 SLP140 T02500122
cycle: 5

Station Type Date Time Source
KDMN TAF 2021/07/27 18:36 UTC NOAA

TAF KDMN 271735Z 2718/2818 16007KT P6SM BKN250
FM272200 22008KT P6SM SCT080 BKN200
FM280600 29008KT P6SM SCT250

Example: see airport list